Time;durP1;ratioP1;P1;durP2;ratioP2;P2;SDS_P1;SDS_P2;PMS_P1;PMS_P2;Temp;Humidity;BMP_temperature;BMP_pressure;BME280_temperature;BME280_humidity;BME280_pressure;Samples;Min_cycle;Max_cycle;Signal;HPM_P1;HPM_P2
2024/02/18 00:00:52;;;;;;;25.50;19.05;;;;;;;;;;5052641;28;20064;-61
2024/02/18 00:03:19;;;;;;;25.38;17.92;;;;;;;;;;5052343;28;20530;-60
2024/02/18 00:05:46;;;;;;;24.45;17.58;;;;;;;;;;5052151;28;20404;-60
2024/02/18 00:08:13;;;;;;;26.23;18.35;;;;;;;;;;5052528;28;20500;-60
2024/02/18 00:10:39;;;;;;;28.20;18.98;;;;;;;;;;5051915;28;20057;-60
2024/02/18 00:13:08;;;;;;;26.90;18.98;;;;;;;;;;5051957;28;20411;-60
2024/02/18 00:15:35;;;;;;;30.05;20.48;;;;;;;;;;5052417;28;20372;-60
2024/02/18 00:18:02;;;;;;;24.55;18.60;;;;;;;;;;5052082;28;20057;-60
2024/02/18 00:20:29;;;;;;;24.58;18.83;;;;;;;;;;5052216;28;20064;-60
2024/02/18 00:22:56;;;;;;;24.00;19.23;;;;;;;;;;5052359;28;20060;-60
2024/02/18 00:25:23;;;;;;;27.02;18.45;;;;;;;;;;5051991;28;20064;-60
2024/02/18 00:27:49;;;;;;;26.00;18.13;;;;;;;;;;5052484;28;20057;-60
2024/02/18 00:30:18;;;;;;;22.92;17.08;;;;;;;;;;5052054;28;20061;-60
2024/02/18 00:32:45;;;;;;;26.08;17.05;;;;;;;;;;5052221;28;20056;-60
2024/02/18 00:35:11;;;;;;;22.92;16.05;;;;;;;;;;5052042;28;20052;-61
2024/02/18 00:37:38;;;;;;;24.88;15.88;;;;;;;;;;5052085;28;20049;-60
2024/02/18 00:40:06;;;;;;;26.80;15.70;;;;;;;;;;5051951;28;20053;-60
2024/02/18 00:42:33;;;;;;;25.40;15.30;;;;;;;;;;5052185;28;20082;-60
2024/02/18 00:44:59;;;;;;;23.23;16.58;;;;;;;;;;5052149;28;20142;-60
2024/02/18 00:47:27;;;;;;;25.25;16.33;;;;;;;;;;5051909;28;20369;-60
2024/02/18 00:49:54;;;;;;;23.05;16.27;;;;;;;;;;5052158;28;20052;-60
2024/02/18 00:52:21;;;;;;;22.50;16.55;;;;;;;;;;5055169;28;20076;-60
2024/02/18 00:54:48;;;;;;;26.13;15.23;;;;;;;;;;5055497;28;20063;-61
2024/02/18 00:57:15;;;;;;;21.67;15.50;;;;;;;;;;5055700;28;20049;-60
2024/02/18 00:59:42;;;;;;;23.85;16.10;;;;;;;;;;5055774;28;20067;-60
2024/02/18 01:02:08;;;;;;;23.08;15.23;;;;;;;;;;5055756;28;20371;-60
2024/02/18 01:04:37;;;;;;;21.38;15.38;;;;;;;;;;5055160;28;20061;-60
2024/02/18 01:07:04;;;;;;;21.30;15.07;;;;;;;;;;5055389;28;20049;-60
2024/02/18 01:09:31;;;;;;;26.15;14.88;;;;;;;;;;5054968;28;20053;-61
2024/02/18 01:11:57;;;;;;;22.73;14.77;;;;;;;;;;5055266;28;20053;-61
2024/02/18 01:14:24;;;;;;;21.48;13.82;;;;;;;;;;5055467;28;20049;-61
2024/02/18 01:16:51;;;;;;;23.20;14.40;;;;;;;;;;5055026;28;20045;-60
2024/02/18 01:19:20;;;;;;;19.40;14.00;;;;;;;;;;5055205;28;20503;-61
2024/02/18 01:21:48;;;;;;;21.47;15.00;;;;;;;;;;5055322;28;20056;-61
2024/02/18 01:24:15;;;;;;;19.92;13.48;;;;;;;;;;5055049;28;20488;-61
2024/02/18 01:26:42;;;;;;;18.88;13.88;;;;;;;;;;5055138;28;20053;-61
2024/02/18 01:29:09;;;;;;;18.48;13.10;;;;;;;;;;5054964;28;20056;-60
2024/02/18 01:31:36;;;;;;;22.33;13.98;;;;;;;;;;5054947;28;20480;-60
2024/02/18 01:34:03;;;;;;;17.13;12.65;;;;;;;;;;5055062;28;20056;-60
2024/02/18 01:36:30;;;;;;;18.65;13.52;;;;;;;;;;5053266;28;20060;-61
2024/02/18 01:38:59;;;;;;;17.15;12.63;;;;;;;;;;5053965;28;20056;-61
2024/02/18 01:41:25;;;;;;;16.88;12.18;;;;;;;;;;5054247;28;20059;-61
2024/02/18 01:43:52;;;;;;;18.70;12.73;;;;;;;;;;5054935;28;20496;-60
2024/02/18 01:46:20;;;;;;;16.42;11.98;;;;;;;;;;5054239;28;20068;-60
2024/02/18 01:48:46;;;;;;;20.25;13.23;;;;;;;;;;5054750;28;20057;-61
2024/02/18 01:51:14;;;;;;;16.20;12.60;;;;;;;;;;5054396;28;20404;-61
2024/02/18 01:53:41;;;;;;;18.92;12.15;;;;;;;;;;5054172;28;20079;-61
2024/02/18 01:56:10;;;;;;;14.95;12.02;;;;;;;;;;5052699;28;20053;-61
2024/02/18 01:58:37;;;;;;;16.83;12.50;;;;;;;;;;5054344;28;20049;-60
2024/02/18 02:01:04;;;;;;;16.60;11.10;;;;;;;;;;5053661;28;20049;-60
2024/02/18 02:03:31;;;;;;;19.77;11.68;;;;;;;;;;5054554;28;20408;-61
2024/02/18 02:05:58;;;;;;;18.15;11.55;;;;;;;;;;5054257;28;20495;-60
2024/02/18 02:08:26;;;;;;;20.95;13.18;;;;;;;;;;5054152;28;20053;-60
2024/02/18 02:10:53;;;;;;;15.90;10.95;;;;;;;;;;5054089;28;20412;-61
2024/02/18 02:13:22;;;;;;;17.88;11.15;;;;;;;;;;5054116;28;20432;-59
2024/02/18 02:15:49;;;;;;;17.25;11.63;;;;;;;;;;5053756;28;20060;-60
2024/02/18 02:18:15;;;;;;;17.60;11.63;;;;;;;;;;5054098;28;20045;-60
2024/02/18 02:20:42;;;;;;;17.00;10.98;;;;;;;;;;5053646;28;20139;-60
2024/02/18 02:23:11;;;;;;;17.85;11.18;;;;;;;;;;5053836;28;20116;-61
2024/02/18 02:25:38;;;;;;;16.67;11.40;;;;;;;;;;5053856;28;20056;-60
2024/02/18 02:28:13;;;;;;;17.25;11.18;;;;;;;;;;5053699;28;20399;-60
2024/02/18 02:30:41;;;;;;;17.55;10.63;;;;;;;;;;5053564;28;20061;-61
2024/02/18 02:33:08;;;;;;;15.88;10.77;;;;;;;;;;5053728;28;20061;-60
2024/02/18 02:35:37;;;;;;;15.35;11.02;;;;;;;;;;5053453;28;20053;-60
2024/02/18 02:38:04;;;;;;;18.58;10.50;;;;;;;;;;5053454;28;20053;-60
2024/02/18 02:40:30;;;;;;;18.42;11.48;;;;;;;;;;5053679;28;20053;-61
2024/02/18 02:42:57;;;;;;;17.15;11.73;;;;;;;;;;5053752;28;20064;-62
2024/02/18 02:45:24;;;;;;;18.08;11.23;;;;;;;;;;5053219;28;20061;-62
2024/02/18 02:47:52;;;;;;;16.25;11.70;;;;;;;;;;5053661;28;20480;-62
2024/02/18 02:50:19;;;;;;;16.25;11.40;;;;;;;;;;5053223;28;20048;-62
2024/02/18 02:52:46;;;;;;;19.40;12.38;;;;;;;;;;5053698;28;20057;-62
2024/02/18 02:55:13;;;;;;;15.18;10.93;;;;;;;;;;5053423;28;20453;-62
2024/02/18 02:57:40;;;;;;;20.23;11.52;;;;;;;;;;5053426;28;20059;-62
2024/02/18 03:00:10;;;;;;;17.13;11.55;;;;;;;;;;5053308;28;20053;-62
2024/02/18 03:02:37;;;;;;;13.50;9.93;;;;;;;;;;5053375;28;20053;-62
2024/02/18 03:05:06;;;;;;;17.40;10.27;;;;;;;;;;5053092;28;20060;-62
2024/02/18 03:07:33;;;;;;;17.40;10.35;;;;;;;;;;5053185;28;20045;-62
2024/02/18 03:09:59;;;;;;;14.10;9.32;;;;;;;;;;5053151;28;20045;-62
2024/02/18 03:12:26;;;;;;;14.27;9.50;;;;;;;;;;5052357;28;20049;-62
2024/02/18 03:14:53;;;;;;;12.13;8.88;;;;;;;;;;5052977;28;20514;-62
2024/02/18 03:17:20;;;;;;;13.93;9.55;;;;;;;;;;5053092;28;20057;-62
2024/02/18 03:19:47;;;;;;;13.48;9.13;;;;;;;;;;5052933;28;20412;-62
2024/02/18 03:22:19;;;;;;;15.07;9.52;;;;;;;;;;5052949;28;20060;-62
2024/02/18 03:24:46;;;;;;;13.25;9.32;;;;;;;;;;5052944;28;20059;-62
2024/02/18 03:27:13;;;;;;;14.02;8.57;;;;;;;;;;5052781;28;20056;-62
2024/02/18 03:29:40;;;;;;;11.77;7.95;;;;;;;;;;5052491;28;20053;-62
2024/02/18 03:32:07;;;;;;;13.32;8.30;;;;;;;;;;5052991;28;20060;-62
2024/02/18 03:34:34;;;;;;;10.98;8.40;;;;;;;;;;5052943;28;20408;-62
2024/02/18 03:37:01;;;;;;;12.18;8.13;;;;;;;;;;5052693;28;20071;-62
2024/02/18 03:39:29;;;;;;;14.27;8.77;;;;;;;;;;5052673;28;20053;-62
2024/02/18 03:41:55;;;;;;;9.95;7.63;;;;;;;;;;5052689;28;20060;-62
2024/02/18 03:44:22;;;;;;;12.00;8.05;;;;;;;;;;5052874;28;20048;-62
2024/02/18 03:46:49;;;;;;;11.70;8.13;;;;;;;;;;5052331;28;20052;-62
2024/02/18 03:49:16;;;;;;;14.73;8.32;;;;;;;;;;5052394;28;20502;-62
2024/02/18 03:51:43;;;;;;;13.02;9.13;;;;;;;;;;5052509;28;20056;-62
2024/02/18 03:54:10;;;;;;;13.20;9.52;;;;;;;;;;5052202;28;20119;-62
2024/02/18 03:56:39;;;;;;;13.23;9.20;;;;;;;;;;5052360;28;20497;-62
2024/02/18 03:59:08;;;;;;;16.05;10.50;;;;;;;;;;5052108;28;20045;-62
2024/02/18 04:01:35;;;;;;;18.05;10.43;;;;;;;;;;5052433;28;20056;-62
2024/02/18 04:04:01;;;;;;;14.77;9.52;;;;;;;;;;5052518;28;20053;-62
2024/02/18 04:06:28;;;;;;;13.77;10.75;;;;;;;;;;5052314;28;20064;-61
2024/02/18 04:08:55;;;;;;;13.88;9.80;;;;;;;;;;5052026;28;20061;-62
2024/02/18 04:11:22;;;;;;;17.40;11.45;;;;;;;;;;5052240;28;20045;-62
2024/02/18 04:13:50;;;;;;;19.13;11.38;;;;;;;;;;5052012;28;20057;-62
2024/02/18 04:16:17;;;;;;;16.38;12.05;;;;;;;;;;5052012;28;20053;-62
2024/02/18 04:18:44;;;;;;;19.65;13.48;;;;;;;;;;5052353;28;20049;-62
2024/02/18 04:21:11;;;;;;;17.45;12.43;;;;;;;;;;5051824;28;20049;-62
2024/02/18 04:23:38;;;;;;;18.65;12.25;;;;;;;;;;5052184;28;20060;-61
2024/02/18 04:26:05;;;;;;;16.17;11.20;;;;;;;;;;5054656;28;20064;-62
2024/02/18 04:28:32;;;;;;;18.48;11.60;;;;;;;;;;5056101;28;20404;-60
2024/02/18 04:31:00;;;;;;;16.23;11.80;;;;;;;;;;5056181;28;20365;-62
2024/02/18 04:33:27;;;;;;;15.93;11.68;;;;;;;;;;5055759;28;20049;-62
2024/02/18 04:35:54;;;;;;;16.35;12.30;;;;;;;;;;5055662;28;20056;-62
2024/02/18 04:38:21;;;;;;;17.33;11.73;;;;;;;;;;5056008;28;20037;-62
2024/02/18 04:40:47;;;;;;;15.52;11.43;;;;;;;;;;5056186;28;20056;-62
2024/02/18 04:43:16;;;;;;;14.00;10.25;;;;;;;;;;5056134;28;20399;-62
2024/02/18 04:45:43;;;;;;;14.38;9.45;;;;;;;;;;5055615;28;20526;-62
2024/02/18 04:48:11;;;;;;;13.18;9.20;;;;;;;;;;5055561;28;20049;-62
2024/02/18 04:50:38;;;;;;;14.32;9.38;;;;;;;;;;5055508;28;20389;-62
2024/02/18 04:53:05;;;;;;;12.02;8.93;;;;;;;;;;5055410;28;20053;-62
2024/02/18 04:55:32;;;;;;;14.52;9.50;;;;;;;;;;5055743;28;20052;-62
2024/02/18 04:57:59;;;;;;;15.27;9.00;;;;;;;;;;5055792;28;20056;-62
2024/02/18 05:00:26;;;;;;;13.25;9.27;;;;;;;;;;5055151;28;20064;-62
2024/02/18 05:02:52;;;;;;;12.38;8.98;;;;;;;;;;5055698;28;20480;-62
2024/02/18 05:05:21;;;;;;;14.10;9.05;;;;;;;;;;5055578;28;20438;-62
2024/02/18 05:07:47;;;;;;;11.85;8.65;;;;;;;;;;5055363;28;20502;-62
2024/02/18 05:10:14;;;;;;;13.45;8.63;;;;;;;;;;5055107;28;20049;-62
2024/02/18 05:12:41;;;;;;;10.40;8.23;;;;;;;;;;5055457;28;20400;-62
2024/02/18 05:15:08;;;;;;;11.32;8.18;;;;;;;;;;5055386;28;20132;-62
2024/02/18 05:17:35;;;;;;;14.05;8.18;;;;;;;;;;5055208;28;20067;-62
2024/02/18 05:20:03;;;;;;;14.65;8.18;;;;;;;;;;5055535;28;20053;-62
2024/02/18 05:22:31;;;;;;;11.43;8.10;;;;;;;;;;5055364;28;20060;-62
2024/02/18 05:24:58;;;;;;;11.65;7.68;;;;;;;;;;5055467;28;20049;-62
2024/02/18 05:27:25;;;;;;;11.57;8.32;;;;;;;;;;5054995;28;20076;-62
2024/02/18 05:29:51;;;;;;;12.32;7.95;;;;;;;;;;5054646;28;20076;-62
2024/02/18 05:32:19;;;;;;;11.05;8.30;;;;;;;;;;5055189;28;20057;-61
2024/02/18 05:34:45;;;;;;;9.98;7.55;;;;;;;;;;5054973;28;20411;-62
2024/02/18 05:37:12;;;;;;;11.15;7.80;;;;;;;;;;5054570;28;20064;-62
2024/02/18 05:39:40;;;;;;;10.63;7.07;;;;;;;;;;5054261;28;20045;-62
2024/02/18 05:42:07;;;;;;;12.60;7.28;;;;;;;;;;5054847;28;20052;-62
2024/02/18 05:44:34;;;;;;;10.55;6.97;;;;;;;;;;5054846;28;20056;-62
2024/02/18 05:47:01;;;;;;;9.40;6.72;;;;;;;;;;5054443;28;20057;-62
2024/02/18 05:49:28;;;;;;;11.52;7.75;;;;;;;;;;5054365;28;20045;-62
2024/02/18 05:51:54;;;;;;;9.55;7.05;;;;;;;;;;5054656;28;20055;-62
2024/02/18 05:54:23;;;;;;;10.48;7.03;;;;;;;;;;5054796;28;20059;-62
2024/02/18 05:56:51;;;;;;;9.10;6.93;;;;;;;;;;5054698;28;20080;-62
2024/02/18 05:59:18;;;;;;;12.95;7.50;;;;;;;;;;5054664;28;20053;-62
2024/02/18 06:01:45;;;;;;;11.07;6.85;;;;;;;;;;5054464;28;20075;-62
2024/02/18 06:04:11;;;;;;;12.07;7.43;;;;;;;;;;5054480;28;20488;-62
2024/02/18 06:06:38;;;;;;;13.05;7.95;;;;;;;;;;5054423;28;20346;-61
2024/02/18 06:09:05;;;;;;;11.25;7.80;;;;;;;;;;5053929;28;20049;-62
2024/02/18 06:11:32;;;;;;;10.13;6.50;;;;;;;;;;5054277;28;20060;-62
2024/02/18 06:14:00;;;;;;;14.52;7.38;;;;;;;;;;5054125;28;20404;-63
2024/02/18 06:16:27;;;;;;;12.18;7.25;;;;;;;;;;5054133;28;20057;-62
2024/02/18 06:18:53;;;;;;;9.82;6.82;;;;;;;;;;5054075;28;20056;-62
2024/02/18 06:21:20;;;;;;;10.95;7.25;;;;;;;;;;5054238;28;20055;-62
2024/02/18 06:23:48;;;;;;;9.70;7.32;;;;;;;;;;5054129;28;20060;-63
2024/02/18 06:26:15;;;;;;;9.73;6.70;;;;;;;;;;5053882;28;20060;-62
2024/02/18 06:28:42;;;;;;;12.07;6.40;;;;;;;;;;5053957;28;20045;-62
2024/02/18 06:31:10;;;;;;;9.85;6.25;;;;;;;;;;5053554;28;20053;-62
2024/02/18 06:33:36;;;;;;;7.88;5.20;;;;;;;;;;5053426;28;20057;-62
2024/02/18 06:36:03;;;;;;;6.60;5.07;;;;;;;;;;5053695;28;20064;-61
2024/02/18 06:38:30;;;;;;;8.68;5.90;;;;;;;;;;5053626;28;20053;-62
2024/02/18 06:40:58;;;;;;;8.23;5.60;;;;;;;;;;5053785;28;20061;-62
2024/02/18 06:43:24;;;;;;;7.80;5.78;;;;;;;;;;5053639;28;20048;-63
2024/02/18 06:45:51;;;;;;;8.02;5.00;;;;;;;;;;5052916;28;20059;-62
2024/02/18 06:48:19;;;;;;;8.35;5.30;;;;;;;;;;5052826;28;20479;-62
2024/02/18 06:50:46;;;;;;;7.80;5.32;;;;;;;;;;5053318;28;20063;-62
2024/02/18 06:53:13;;;;;;;8.95;6.10;;;;;;;;;;5053047;28;20074;-62
2024/02/18 06:55:40;;;;;;;9.20;5.45;;;;;;;;;;5053103;28;20061;-62
2024/02/18 06:58:08;;;;;;;7.97;5.10;;;;;;;;;;5053455;28;20068;-62
2024/02/18 07:00:35;;;;;;;6.65;4.85;;;;;;;;;;5053271;28;20048;-62
2024/02/18 07:03:02;;;;;;;9.13;5.40;;;;;;;;;;5053357;28;20064;-62
2024/02/18 07:05:30;;;;;;;7.30;4.70;;;;;;;;;;5053224;28;20496;-62
2024/02/18 07:07:57;;;;;;;7.28;4.32;;;;;;;;;;5053288;28;20495;-61
2024/02/18 07:10:23;;;;;;;8.52;5.50;;;;;;;;;;5053184;28;20056;-62
2024/02/18 07:12:50;;;;;;;10.15;4.65;;;;;;;;;;5053093;28;20060;-62
2024/02/18 07:15:17;;;;;;;6.65;4.35;;;;;;;;;;5053068;28;20068;-62
2024/02/18 07:17:44;;;;;;;7.88;4.60;;;;;;;;;;5052948;28;20476;-61
2024/02/18 07:20:13;;;;;;;6.68;4.32;;;;;;;;;;5052976;28;20051;-62
2024/02/18 07:22:40;;;;;;;;;;;;;;;;;;5053487;28;20071;-62
2024/02/18 07:25:10;;;;;;;6.00;3.75;;;;;;;;;;5052548;28;19927;-62
2024/02/18 07:27:37;;;;;;;6.37;3.80;;;;;;;;;;5052270;28;20060;-62
2024/02/18 07:30:05;;;;;;;8.52;3.95;;;;;;;;;;5052338;28;20483;-62
2024/02/18 07:32:31;;;;;;;7.78;4.13;;;;;;;;;;5052607;28;20057;-62
2024/02/18 07:34:58;;;;;;;5.50;4.03;;;;;;;;;;5052378;28;20055;-62
2024/02/18 07:37:25;;;;;;;5.28;3.63;;;;;;;;;;5052454;28;20049;-62
2024/02/18 07:39:52;;;;;;;6.97;3.90;;;;;;;;;;5052589;28;20083;-62
2024/02/18 07:42:20;;;;;;;6.07;3.90;;;;;;;;;;5052600;28;20064;-62
2024/02/18 07:44:47;;;;;;;8.50;3.63;;;;;;;;;;5052150;28;20057;-62
2024/02/18 07:47:13;;;;;;;7.10;3.78;;;;;;;;;;5051490;28;20060;-62
2024/02/18 07:49:40;;;;;;;7.53;3.70;;;;;;;;;;5052241;28;20060;-62
2024/02/18 07:52:07;;;;;;;5.28;3.58;;;;;;;;;;5052540;28;20061;-62
2024/02/18 07:54:34;;;;;;;4.63;3.60;;;;;;;;;;5052432;28;20053;-62
2024/02/18 07:57:00;;;;;;;6.15;3.70;;;;;;;;;;5052658;28;20415;-62
2024/02/18 07:59:29;;;;;;;7.32;4.20;;;;;;;;;;5051960;28;20419;-62
2024/02/18 08:01:55;;;;;;;7.53;4.25;;;;;;;;;;5052509;28;20057;-62
2024/02/18 08:04:22;;;;;;;5.50;3.83;;;;;;;;;;5052327;28;20064;-62
2024/02/18 08:06:50;;;;;;;8.77;4.53;;;;;;;;;;5052442;28;20067;-61
2024/02/18 08:09:17;;;;;;;7.40;4.28;;;;;;;;;;5052107;28;20416;-62
2024/02/18 08:11:44;;;;;;;6.95;4.18;;;;;;;;;;5052061;28;20399;-62
2024/02/18 08:14:12;;;;;;;9.27;4.60;;;;;;;;;;5052066;28;20056;-62
2024/02/18 08:16:40;;;;;;;8.40;4.88;;;;;;;;;;5051973;28;20057;-63
2024/02/18 08:19:07;;;;;;;7.97;4.40;;;;;;;;;;5051732;28;20057;-63
2024/02/18 08:21:34;;;;;;;7.97;4.60;;;;;;;;;;5051899;28;20056;-61
2024/02/18 08:24:01;;;;;;;7.18;4.60;;;;;;;;;;5051890;28;20053;-61
2024/02/18 08:26:29;;;;;;;7.38;4.78;;;;;;;;;;5051891;28;20060;-61
2024/02/18 08:28:56;;;;;;;8.57;5.25;;;;;;;;;;5052061;28;20415;-61
2024/02/18 08:31:23;;;;;;;12.30;5.60;;;;;;;;;;5051757;28;20060;-61
2024/02/18 08:33:51;;;;;;;9.65;4.60;;;;;;;;;;5051989;28;20049;-61
2024/02/18 08:36:18;;;;;;;11.38;4.82;;;;;;;;;;5052111;28;20488;-61
2024/02/18 08:38:47;;;;;;;7.18;4.70;;;;;;;;;;5051621;28;20056;-61
2024/02/18 08:41:14;;;;;;;5.68;4.07;;;;;;;;;;5051756;28;20044;-61
2024/02/18 08:43:42;;;;;;;7.70;4.97;;;;;;;;;;5051858;28;20481;-61
2024/02/18 08:46:08;;;;;;;8.25;4.75;;;;;;;;;;5051448;28;20048;-60
2024/02/18 08:48:36;;;;;;;9.10;4.40;;;;;;;;;;5051549;28;20068;-61
2024/02/18 08:51:04;;;;;;;7.95;4.63;;;;;;;;;;5051689;28;20045;-61
2024/02/18 08:53:31;;;;;;;7.30;4.55;;;;;;;;;;5051750;28;20057;-60
2024/02/18 08:55:57;;;;;;;7.70;3.63;;;;;;;;;;5051511;28;20396;-61
2024/02/18 08:58:24;;;;;;;8.00;3.95;;;;;;;;;;5051808;28;20064;-61
2024/02/18 09:00:51;;;;;;;5.82;4.07;;;;;;;;;;5051709;28;20049;-61
2024/02/18 09:03:18;;;;;;;7.13;4.18;;;;;;;;;;5051569;28;20061;-61
2024/02/18 09:05:45;;;;;;;7.30;4.28;;;;;;;;;;5050961;28;20064;-60
2024/02/18 09:08:13;;;;;;;8.02;3.97;;;;;;;;;;5050952;28;20420;-61
2024/02/18 09:10:39;;;;;;;8.98;3.95;;;;;;;;;;5050836;28;20045;-61
2024/02/18 09:13:06;;;;;;;8.18;4.28;;;;;;;;;;5054862;28;20080;-61
2024/02/18 09:15:33;;;;;;;7.18;4.28;;;;;;;;;;5054840;28;20059;-61
2024/02/18 09:18:00;;;;;;;6.97;4.00;;;;;;;;;;5054979;28;20483;-61
2024/02/18 09:20:28;;;;;;;6.28;3.88;;;;;;;;;;5054655;28;20443;-62
2024/02/18 09:22:55;;;;;;;7.55;3.70;;;;;;;;;;5055028;28;20471;-62
2024/02/18 09:25:23;;;;;;;6.22;4.05;;;;;;;;;;5054580;28;20060;-62
2024/02/18 09:27:50;;;;;;;7.88;4.38;;;;;;;;;;5053150;28;20048;-62
2024/02/18 09:30:17;;;;;;;6.57;4.40;;;;;;;;;;5054614;28;20049;-62
2024/02/18 09:32:44;;;;;;;5.70;3.75;;;;;;;;;;5055134;28;20048;-61
2024/02/18 09:35:11;;;;;;;5.03;3.38;;;;;;;;;;5054677;28;20049;-61
2024/02/18 09:37:38;;;;;;;7.60;4.00;;;;;;;;;;5054346;28;20499;-62
2024/02/18 09:40:05;;;;;;;6.47;4.13;;;;;;;;;;5054270;28;20056;-62
2024/02/18 09:42:35;;;;;;;6.53;4.10;;;;;;;;;;5054569;28;20053;-62
2024/02/18 09:45:02;;;;;;;;;;;;;;;;;;5054943;28;20488;-62
2024/02/18 09:47:30;;;;;;;5.55;3.15;;;;;;;;;;5054505;28;19925;-62
2024/02/18 09:49:57;;;;;;;7.47;3.30;;;;;;;;;;5054277;28;20059;-63
2024/02/18 09:52:24;;;;;;;6.95;3.67;;;;;;;;;;5054371;28;20060;-62
2024/02/18 09:54:52;;;;;;;5.93;3.30;;;;;;;;;;5054274;28;20356;-62
2024/02/18 09:57:19;;;;;;;5.80;2.80;;;;;;;;;;5054397;28;20408;-62
2024/02/18 09:59:47;;;;;;;5.70;2.90;;;;;;;;;;5053805;28;20056;-63
2024/02/18 10:02:15;;;;;;;6.53;3.15;;;;;;;;;;5054012;28;20057;-63
2024/02/18 10:04:46;;;;;;;4.85;2.80;;;;;;;;;;5054214;28;20057;-63
2024/02/18 10:07:13;;;;;;;5.22;3.20;;;;;;;;;;5054394;28;20053;-63
2024/02/18 10:09:40;;;;;;;6.63;3.15;;;;;;;;;;5054508;28;20056;-62
2024/02/18 10:12:07;;;;;;;7.18;2.97;;;;;;;;;;5053986;28;20045;-62
2024/02/18 10:14:35;;;;;;;6.68;2.90;;;;;;;;;;5053694;28;20056;-62
2024/02/18 10:17:03;;;;;;;8.07;2.60;;;;;;;;;;5053740;28;20049;-62
2024/02/18 10:19:30;;;;;;;4.90;2.50;;;;;;;;;;5053371;28;20053;-62
2024/02/18 10:22:00;;;;;;;5.55;2.50;;;;;;;;;;5053395;28;20053;-62
2024/02/18 10:24:26;;;;;;;6.07;2.58;;;;;;;;;;5053090;28;20068;-62
2024/02/18 10:26:55;;;;;;;4.78;2.30;;;;;;;;;;5053736;28;20064;-63
2024/02/18 10:29:21;;;;;;;6.25;2.60;;;;;;;;;;5053798;28;20053;-62
2024/02/18 10:31:48;;;;;;;3.85;2.28;;;;;;;;;;5053438;28;20072;-63
2024/02/18 10:34:17;;;;;;;5.05;2.58;;;;;;;;;;5053710;28;20412;-62
2024/02/18 10:36:46;;;;;;;4.80;2.25;;;;;;;;;;5053720;28;20056;-62
2024/02/18 10:39:15;;;;;;;6.00;2.50;;;;;;;;;;5053491;28;20060;-62
2024/02/18 10:41:47;;;;;;;4.70;2.20;;;;;;;;;;5053129;28;20479;-62
2024/02/18 10:44:16;;;;;;;6.82;2.75;;;;;;;;;;5053178;28;20057;-62
2024/02/18 10:46:44;;;;;;;5.30;2.60;;;;;;;;;;5053184;28;20061;-61
2024/02/18 10:49:15;;;;;;;4.53;2.63;;;;;;;;;;5053285;28;20053;-61
2024/02/18 10:51:45;;;;;;;3.45;2.25;;;;;;;;;;5052900;28;20400;-62
2024/02/18 10:54:16;;;;;;;4.13;2.40;;;;;;;;;;5052749;28;20080;-62
2024/02/18 10:56:43;;;;;;;5.22;2.33;;;;;;;;;;5053224;28;20053;-62
2024/02/18 10:59:14;;;;;;;4.13;2.47;;;;;;;;;;5053049;28;20404;-62
2024/02/18 11:01:42;;;;;;;5.03;2.40;;;;;;;;;;5052878;28;20049;-61
2024/02/18 11:04:10;;;;;;;5.25;2.58;;;;;;;;;;5052740;28;20057;-61
2024/02/18 11:06:37;;;;;;;5.75;2.50;;;;;;;;;;5052773;28;20413;-61
2024/02/18 11:09:08;;;;;;;7.72;2.90;;;;;;;;;;5052885;28;20049;-62
2024/02/18 11:11:35;;;;;;;4.97;2.47;;;;;;;;;;5052490;28;20049;-61
2024/02/18 11:14:03;;;;;;;6.50;2.65;;;;;;;;;;5052926;28;20060;-62
2024/02/18 11:16:29;;;;;;;4.53;2.63;;;;;;;;;;5052586;28;20057;-61
2024/02/18 11:18:58;;;;;;;4.93;2.67;;;;;;;;;;5052343;28;20062;-62
2024/02/18 11:21:25;;;;;;;4.40;2.75;;;;;;;;;;5052394;28;20049;-62
2024/02/18 11:23:53;;;;;;;5.63;2.60;;;;;;;;;;5052615;28;20089;-61
2024/02/18 11:26:21;;;;;;;7.57;2.70;;;;;;;;;;5052113;28;20068;-62
2024/02/18 11:28:48;;;;;;;8.30;2.95;;;;;;;;;;5052784;28;20060;-61
2024/02/18 11:31:19;;;;;;;7.07;2.50;;;;;;;;;;5052402;28;20056;-61
2024/02/18 11:33:46;;;;;;;6.10;2.50;;;;;;;;;;5052039;28;20049;-61
2024/02/18 11:36:13;;;;;;;5.85;2.60;;;;;;;;;;5052439;28;20049;-62
2024/02/18 11:38:44;;;;;;;5.18;2.85;;;;;;;;;;5052326;28;20060;-62
2024/02/18 11:41:18;;;;;;;4.30;2.47;;;;;;;;;;5052522;28;20049;-61
2024/02/18 11:43:50;;;;;;;5.43;2.42;;;;;;;;;;5052147;28;20499;-61
2024/02/18 11:46:19;;;;;;;4.72;2.40;;;;;;;;;;5052016;28;20408;-61
2024/02/18 11:48:46;;;;;;;5.20;2.38;;;;;;;;;;5052211;28;20053;-61
2024/02/18 11:51:13;;;;;;;4.90;2.35;;;;;;;;;;5052032;28;20048;-61
2024/02/18 11:53:41;;;;;;;6.47;2.70;;;;;;;;;;5051669;28;20060;-62
2024/02/18 11:56:08;;;;;;;4.53;2.13;;;;;;;;;;5051918;28;20056;-62
2024/02/18 11:58:35;;;;;;;5.57;2.67;;;;;;;;;;5051788;28;20064;-61
2024/02/18 12:01:04;;;;;;;6.40;2.10;;;;;;;;;;5051860;28;20063;-61
2024/02/18 12:03:31;;;;;;;3.88;2.22;;;;;;;;;;5052228;28;20059;-61
2024/02/18 12:05:58;;;;;;;4.88;2.20;;;;;;;;;;5051757;28;20056;-61
2024/02/18 12:08:25;;;;;;;4.55;2.17;;;;;;;;;;5052391;28;20416;-61
2024/02/18 12:10:52;;;;;;;4.53;2.22;;;;;;;;;;5051853;28;20052;-61
2024/02/18 12:13:21;;;;;;;4.60;2.28;;;;;;;;;;5051916;28;20053;-61
2024/02/18 12:15:49;;;;;;;6.97;2.67;;;;;;;;;;5051544;28;20052;-61
2024/02/18 12:18:18;;;;;;;5.07;2.53;;;;;;;;;;5051702;28;20080;-62
2024/02/18 12:20:47;;;;;;;3.50;2.05;;;;;;;;;;5051675;28;20132;-61
2024/02/18 12:23:14;;;;;;;5.57;2.00;;;;;;;;;;5051728;28;20496;-61
2024/02/18 12:25:41;;;;;;;4.63;2.22;;;;;;;;;;5052112;28;20053;-61
2024/02/18 12:28:09;;;;;;;5.90;2.30;;;;;;;;;;5051682;28;20053;-61
2024/02/18 12:30:37;;;;;;;5.57;2.20;;;;;;;;;;5051548;28;20064;-61
2024/02/18 12:33:05;;;;;;;4.60;2.28;;;;;;;;;;5051673;28;20502;-61
2024/02/18 12:35:33;;;;;;;3.35;2.05;;;;;;;;;;5051235;28;20061;-61
2024/02/18 12:38:00;;;;;;;3.42;2.08;;;;;;;;;;5051338;28;20436;-61
2024/02/18 12:40:27;;;;;;;4.63;2.35;;;;;;;;;;5051718;28;20060;-61
2024/02/18 12:42:54;;;;;;;6.38;2.45;;;;;;;;;;5051569;28;20060;-61
2024/02/18 12:45:21;;;;;;;4.07;2.38;;;;;;;;;;5051528;28;20392;-61
2024/02/18 12:47:49;;;;;;;6.15;2.30;;;;;;;;;;5055625;28;20052;-61
2024/02/18 12:50:15;;;;;;;6.47;2.20;;;;;;;;;;5055315;28;20049;-62
2024/02/18 12:52:45;;;;;;;5.75;2.25;;;;;;;;;;5055356;28;20395;-61
2024/02/18 12:55:14;;;;;;;5.65;2.05;;;;;;;;;;5055674;28;20052;-61
2024/02/18 12:57:41;;;;;;;5.80;2.25;;;;;;;;;;5055718;28;20060;-60
2024/02/18 13:00:09;;;;;;;5.60;2.42;;;;;;;;;;5054823;28;20049;-61
2024/02/18 13:02:35;;;;;;;4.47;2.20;;;;;;;;;;5055254;28;20060;-61
2024/02/18 13:05:03;;;;;;;5.45;2.25;;;;;;;;;;5055456;28;20060;-61
2024/02/18 13:07:30;;;;;;;4.95;2.40;;;;;;;;;;5055203;28;20056;-61
2024/02/18 13:09:59;;;;;;;6.22;2.22;;;;;;;;;;5054911;28;20056;-61
2024/02/18 13:12:26;;;;;;;4.45;2.20;;;;;;;;;;5055008;28;20052;-61
2024/02/18 13:14:53;;;;;;;4.43;2.50;;;;;;;;;;5054684;28;20080;-61
2024/02/18 13:17:20;;;;;;;5.47;2.30;;;;;;;;;;5054791;28;20476;-61
2024/02/18 13:19:47;;;;;;;4.22;2.50;;;;;;;;;;5054622;28;20056;-61
2024/02/18 13:22:14;;;;;;;5.10;2.30;;;;;;;;;;5055046;28;20053;-61
2024/02/18 13:24:41;;;;;;;6.15;2.20;;;;;;;;;;5054893;28;20049;-61
2024/02/18 13:27:09;;;;;;;5.38;2.40;;;;;;;;;;5054837;28;20484;-60
2024/02/18 13:29:36;;;;;;;3.88;2.20;;;;;;;;;;5054729;28;20060;-61
2024/02/18 13:32:04;;;;;;;4.05;2.17;;;;;;;;;;5054895;28;20053;-61
2024/02/18 13:34:31;;;;;;;3.70;2.38;;;;;;;;;;5054215;28;20060;-61
2024/02/18 13:36:59;;;;;;;5.30;2.28;;;;;;;;;;5054628;28;20163;-61
2024/02/18 13:39:26;;;;;;;9.93;2.80;;;;;;;;;;5054229;28;20053;-60
2024/02/18 13:41:53;;;;;;;15.75;3.58;;;;;;;;;;5054423;28;20140;-60
2024/02/18 13:44:22;;;;;;;8.35;3.58;;;;;;;;;;5054605;28;20049;-60
2024/02/18 13:46:48;;;;;;;17.17;4.32;;;;;;;;;;5054041;28;20246;-61
2024/02/18 13:49:15;;;;;;;6.68;3.33;;;;;;;;;;5054488;28;20395;-61
2024/02/18 13:51:42;;;;;;;10.73;3.65;;;;;;;;;;5054137;28;20053;-61
2024/02/18 13:54:09;;;;;;;4.53;3.08;;;;;;;;;;5054004;28;20083;-61
2024/02/18 13:56:36;;;;;;;7.60;3.33;;;;;;;;;;5054067;28;20053;-62
2024/02/18 13:59:02;;;;;;;4.20;2.88;;;;;;;;;;5054184;28;20056;-62
2024/02/18 14:01:36;;;;;;;7.05;2.95;;;;;;;;;;5054155;28;20380;-62
2024/02/18 14:04:03;;;;;;;7.15;3.22;;;;;;;;;;5053910;28;20063;-62
2024/02/18 14:06:31;;;;;;;6.47;2.83;;;;;;;;;;5054252;28;20049;-62
2024/02/18 14:08:57;;;;;;;6.78;2.72;;;;;;;;;;5054124;28;20493;-62
2024/02/18 14:11:24;;;;;;;8.57;3.45;;;;;;;;;;5054086;28;20400;-62
2024/02/18 14:13:51;;;;;;;8.85;3.33;;;;;;;;;;5053657;28;20049;-62
2024/02/18 14:16:24;;;;;;;4.68;3.03;;;;;;;;;;5054067;28;20056;-63
2024/02/18 14:18:52;;;;;;;7.05;3.40;;;;;;;;;;5054497;28;20075;-63
2024/02/18 14:21:19;;;;;;;9.82;3.00;;;;;;;;;;5053921;28;20064;-63
2024/02/18 14:23:46;;;;;;;5.13;2.80;;;;;;;;;;5053809;28;20056;-64
2024/02/18 14:26:13;;;;;;;5.13;2.88;;;;;;;;;;5053878;28;20076;-63
2024/02/18 14:28:39;;;;;;;5.63;2.92;;;;;;;;;;5053685;28;20063;-62
2024/02/18 14:31:06;;;;;;;13.30;4.43;;;;;;;;;;5053466;28;20044;-62
2024/02/18 14:33:33;;;;;;;12.10;3.95;;;;;;;;;;5053075;28;20480;-63